sensor_id;sensor_type;location;lat;lon;timestamp;P1;durP1;ratioP1;P2;durP2;ratioP2
3503;SDS011;1766;53.490;10.174;2023-04-24T00:01:47;6.17;;;4.53;;
3503;SDS011;1766;53.490;10.174;2023-04-24T00:03:50;4.93;;;4.53;;
3503;SDS011;1766;53.490;10.174;2023-04-24T00:05:52;4.80;;;4.40;;
3503;SDS011;1766;53.490;10.174;2023-04-24T00:07:55;4.83;;;4.43;;
3503;SDS011;1766;53.490;10.174;2023-04-24T00:09:57;7.23;;;4.97;;
3503;SDS011;1766;53.490;10.174;2023-04-24T00:11:59;4.90;;;4.40;;
3503;SDS011;1766;53.490;10.174;2023-04-24T00:14:03;4.97;;;4.47;;
3503;SDS011;1766;53.490;10.174;2023-04-24T00:16:05;5.23;;;4.83;;
3503;SDS011;1766;53.490;10.174;2023-04-24T00:18:07;5.20;;;4.70;;
3503;SDS011;1766;53.490;10.174;2023-04-24T00:20:10;5.10;;;4.70;;
3503;SDS011;1766;53.490;10.174;2023-04-24T00:22:12;5.20;;;4.73;;
3503;SDS011;1766;53.490;10.174;2023-04-24T00:24:16;5.10;;;4.60;;
3503;SDS011;1766;53.490;10.174;2023-04-24T00:26:18;5.23;;;4.83;;
3503;SDS011;1766;53.490;10.174;2023-04-24T00:28:20;6.60;;;4.60;;
3503;SDS011;1766;53.490;10.174;2023-04-24T00:30:24;7.20;;;4.97;;
3503;SDS011;1766;53.490;10.174;2023-04-24T00:32:26;5.80;;;5.07;;
3503;SDS011;1766;53.490;10.174;2023-04-24T00:34:28;6.53;;;5.30;;
3503;SDS011;1766;53.490;10.174;2023-04-24T00:36:32;5.33;;;4.90;;
3503;SDS011;1766;53.490;10.174;2023-04-24T00:38:34;4.97;;;4.47;;
3503;SDS011;1766;53.490;10.174;2023-04-24T00:40:37;5.67;;;5.20;;
3503;SDS011;1766;53.490;10.174;2023-04-24T00:42:39;8.23;;;5.50;;
3503;SDS011;1766;53.490;10.174;2023-04-24T00:44:42;5.67;;;5.17;;
3503;SDS011;1766;53.490;10.174;2023-04-24T00:46:44;6.50;;;5.47;;
3503;SDS011;1766;53.490;10.174;2023-04-24T00:48:47;5.43;;;4.93;;
3503;SDS011;1766;53.490;10.174;2023-04-24T00:50:49;6.27;;;5.20;;
3503;SDS011;1766;53.490;10.174;2023-04-24T00:52:50;6.97;;;5.80;;
3503;SDS011;1766;53.490;10.174;2023-04-24T00:54:52;6.30;;;5.70;;
3503;SDS011;1766;53.490;10.174;2023-04-24T00:56:56;5.80;;;5.30;;
3503;SDS011;1766;53.490;10.174;2023-04-24T00:58:57;8.70;;;5.83;;
3503;SDS011;1766;53.490;10.174;2023-04-24T01:01:00;6.63;;;5.37;;
3503;SDS011;1766;53.490;10.174;2023-04-24T01:03:06;6.13;;;5.53;;
3503;SDS011;1766;53.490;10.174;2023-04-24T01:05:11;6.50;;;5.87;;
3503;SDS011;1766;53.490;10.174;2023-04-24T01:07:15;7.53;;;5.50;;
3503;SDS011;1766;53.490;10.174;2023-04-24T01:09:17;6.07;;;5.43;;
3503;SDS011;1766;53.490;10.174;2023-04-24T01:11:19;8.57;;;5.53;;
3503;SDS011;1766;53.490;10.174;2023-04-24T01:13:24;5.43;;;4.80;;
3503;SDS011;1766;53.490;10.174;2023-04-24T01:15:26;6.63;;;5.47;;
3503;SDS011;1766;53.490;10.174;2023-04-24T01:17:28;6.57;;;5.07;;
3503;SDS011;1766;53.490;10.174;2023-04-24T01:19:29;6.07;;;5.20;;
3503;SDS011;1766;53.490;10.174;2023-04-24T01:21:31;5.87;;;4.60;;
3503;SDS011;1766;53.490;10.174;2023-04-24T01:23:38;7.03;;;4.67;;
3503;SDS011;1766;53.490;10.174;2023-04-24T01:25:40;4.93;;;4.53;;
3503;SDS011;1766;53.490;10.174;2023-04-24T01:27:43;5.00;;;4.57;;
3503;SDS011;1766;53.490;10.174;2023-04-24T01:29:45;4.73;;;4.17;;
3503;SDS011;1766;53.490;10.174;2023-04-24T01:31:49;5.23;;;3.83;;
3503;SDS011;1766;53.490;10.174;2023-04-24T01:33:51;4.43;;;4.03;;
3503;SDS011;1766;53.490;10.174;2023-04-24T01:35:54;4.37;;;4.00;;
3503;SDS011;1766;53.490;10.174;2023-04-24T01:37:57;4.03;;;3.73;;
3503;SDS011;1766;53.490;10.174;2023-04-24T01:40:00;4.27;;;3.87;;
3503;SDS011;1766;53.490;10.174;2023-04-24T01:42:04;5.53;;;3.77;;
3503;SDS011;1766;53.490;10.174;2023-04-24T01:44:07;7.50;;;5.53;;
3503;SDS011;1766;53.490;10.174;2023-04-24T01:46:08;5.33;;;4.23;;
3503;SDS011;1766;53.490;10.174;2023-04-24T01:48:11;4.07;;;3.67;;
3503;SDS011;1766;53.490;10.174;2023-04-24T01:50:13;4.63;;;3.97;;
3503;SDS011;1766;53.490;10.174;2023-04-24T01:52:16;4.83;;;3.83;;
3503;SDS011;1766;53.490;10.174;2023-04-24T01:54:18;4.77;;;4.27;;
3503;SDS011;1766;53.490;10.174;2023-04-24T01:56:22;4.20;;;3.70;;
3503;SDS011;1766;53.490;10.174;2023-04-24T01:58:24;4.17;;;3.77;;
3503;SDS011;1766;53.490;10.174;2023-04-24T02:00:26;4.27;;;3.90;;
3503;SDS011;1766;53.490;10.174;2023-04-24T02:02:28;4.30;;;3.90;;
3503;SDS011;1766;53.490;10.174;2023-04-24T02:04:30;3.97;;;3.67;;
3503;SDS011;1766;53.490;10.174;2023-04-24T02:06:32;5.77;;;4.17;;
3503;SDS011;1766;53.490;10.174;2023-04-24T02:08:34;4.50;;;4.10;;
3503;SDS011;1766;53.490;10.174;2023-04-24T02:10:35;4.93;;;4.10;;
3503;SDS011;1766;53.490;10.174;2023-04-24T02:12:38;5.30;;;4.37;;
3503;SDS011;1766;53.490;10.174;2023-04-24T02:14:40;5.23;;;4.37;;
3503;SDS011;1766;53.490;10.174;2023-04-24T02:16:43;4.73;;;4.10;;
3503;SDS011;1766;53.490;10.174;2023-04-24T02:18:45;3.83;;;3.53;;
3503;SDS011;1766;53.490;10.174;2023-04-24T02:20:47;8.40;;;3.93;;
3503;SDS011;1766;53.490;10.174;2023-04-24T02:22:49;3.90;;;3.53;;
3503;SDS011;1766;53.490;10.174;2023-04-24T02:24:51;3.60;;;3.30;;
3503;SDS011;1766;53.490;10.174;2023-04-24T02:26:52;3.80;;;3.50;;
3503;SDS011;1766;53.490;10.174;2023-04-24T02:28:56;3.17;;;2.90;;
3503;SDS011;1766;53.490;10.174;2023-04-24T02:30:57;3.00;;;2.80;;
3503;SDS011;1766;53.490;10.174;2023-04-24T02:32:59;2.80;;;2.60;;
3503;SDS011;1766;53.490;10.174;2023-04-24T02:35:01;2.60;;;2.40;;
3503;SDS011;1766;53.490;10.174;2023-04-24T02:37:03;2.57;;;2.40;;
3503;SDS011;1766;53.490;10.174;2023-04-24T02:39:05;5.57;;;2.43;;
3503;SDS011;1766;53.490;10.174;2023-04-24T02:41:07;2.37;;;2.27;;
3503;SDS011;1766;53.490;10.174;2023-04-24T02:43:09;2.13;;;2.03;;
3503;SDS011;1766;53.490;10.174;2023-04-24T02:45:12;2.37;;;2.17;;
3503;SDS011;1766;53.490;10.174;2023-04-24T02:47:14;2.80;;;2.60;;
3503;SDS011;1766;53.490;10.174;2023-04-24T02:49:16;1.90;;;1.80;;
3503;SDS011;1766;53.490;10.174;2023-04-24T02:51:18;2.03;;;1.80;;
3503;SDS011;1766;53.490;10.174;2023-04-24T02:53:19;2.03;;;1.70;;
3503;SDS011;1766;53.490;10.174;2023-04-24T02:55:21;2.40;;;2.10;;
3503;SDS011;1766;53.490;10.174;2023-04-24T02:57:23;2.00;;;1.90;;
3503;SDS011;1766;53.490;10.174;2023-04-24T02:59:25;1.63;;;1.53;;
3503;SDS011;1766;53.490;10.174;2023-04-24T03:01:30;2.07;;;1.40;;
3503;SDS011;1766;53.490;10.174;2023-04-24T03:03:31;1.60;;;1.50;;
3503;SDS011;1766;53.490;10.174;2023-04-24T03:05:33;3.27;;;2.20;;
3503;SDS011;1766;53.490;10.174;2023-04-24T03:07:35;1.90;;;1.80;;
3503;SDS011;1766;53.490;10.174;2023-04-24T03:09:37;2.17;;;1.73;;
3503;SDS011;1766;53.490;10.174;2023-04-24T03:11:39;1.77;;;1.60;;
3503;SDS011;1766;53.490;10.174;2023-04-24T03:13:41;1.17;;;1.17;;
3503;SDS011;1766;53.490;10.174;2023-04-24T03:15:43;3.17;;;1.70;;
3503;SDS011;1766;53.490;10.174;2023-04-24T03:17:47;1.47;;;1.40;;
3503;SDS011;1766;53.490;10.174;2023-04-24T03:19:49;3.23;;;1.30;;
3503;SDS011;1766;53.490;10.174;2023-04-24T03:21:51;1.30;;;1.20;;
3503;SDS011;1766;53.490;10.174;2023-04-24T03:23:53;1.37;;;1.27;;
3503;SDS011;1766;53.490;10.174;2023-04-24T03:25:54;1.47;;;1.37;;
3503;SDS011;1766;53.490;10.174;2023-04-24T03:27:56;1.60;;;1.50;;
3503;SDS011;1766;53.490;10.174;2023-04-24T03:29:58;1.37;;;1.13;;
3503;SDS011;1766;53.490;10.174;2023-04-24T03:32:00;1.83;;;1.60;;
3503;SDS011;1766;53.490;10.174;2023-04-24T03:34:03;1.23;;;1.13;;
3503;SDS011;1766;53.490;10.174;2023-04-24T03:36:05;1.40;;;1.30;;
3503;SDS011;1766;53.490;10.174;2023-04-24T03:38:07;1.63;;;1.10;;
3503;SDS011;1766;53.490;10.174;2023-04-24T03:40:10;1.30;;;1.20;;
3503;SDS011;1766;53.490;10.174;2023-04-24T03:42:12;1.90;;;1.80;;
3503;SDS011;1766;53.490;10.174;2023-04-24T03:44:14;3.47;;;1.40;;
3503;SDS011;1766;53.490;10.174;2023-04-24T03:46:16;1.20;;;1.10;;
3503;SDS011;1766;53.490;10.174;2023-04-24T03:48:17;1.00;;;1.00;;
3503;SDS011;1766;53.490;10.174;2023-04-24T03:50:20;1.37;;;1.17;;
3503;SDS011;1766;53.490;10.174;2023-04-24T03:52:22;1.87;;;1.40;;
3503;SDS011;1766;53.490;10.174;2023-04-24T03:54:24;1.47;;;1.40;;
3503;SDS011;1766;53.490;10.174;2023-04-24T03:56:26;1.70;;;1.60;;
3503;SDS011;1766;53.490;10.174;2023-04-24T03:58:28;1.13;;;1.10;;
3503;SDS011;1766;53.490;10.174;2023-04-24T04:00:30;2.90;;;2.23;;
3503;SDS011;1766;53.490;10.174;2023-04-24T04:02:33;1.30;;;1.20;;
3503;SDS011;1766;53.490;10.174;2023-04-24T04:04:34;2.87;;;1.20;;
3503;SDS011;1766;53.490;10.174;2023-04-24T04:06:37;1.90;;;1.60;;
3503;SDS011;1766;53.490;10.174;2023-04-24T04:08:39;2.07;;;1.80;;
3503;SDS011;1766;53.490;10.174;2023-04-24T04:10:41;1.60;;;1.50;;
3503;SDS011;1766;53.490;10.174;2023-04-24T04:12:43;2.10;;;1.50;;
3503;SDS011;1766;53.490;10.174;2023-04-24T04:14:44;2.10;;;2.00;;
3503;SDS011;1766;53.490;10.174;2023-04-24T04:16:45;3.80;;;1.97;;
3503;SDS011;1766;53.490;10.174;2023-04-24T04:18:47;1.60;;;1.50;;
3503;SDS011;1766;53.490;10.174;2023-04-24T04:20:49;1.70;;;1.60;;
3503;SDS011;1766;53.490;10.174;2023-04-24T04:22:53;2.20;;;1.20;;
3503;SDS011;1766;53.490;10.174;2023-04-24T04:24:55;1.30;;;1.20;;
3503;SDS011;1766;53.490;10.174;2023-04-24T04:26:57;1.40;;;1.40;;
3503;SDS011;1766;53.490;10.174;2023-04-24T04:28:59;1.70;;;1.60;;
3503;SDS011;1766;53.490;10.174;2023-04-24T04:31:03;1.10;;;1.10;;
3503;SDS011;1766;53.490;10.174;2023-04-24T04:33:05;1.90;;;1.80;;
3503;SDS011;1766;53.490;10.174;2023-04-24T04:35:08;1.97;;;1.87;;
3503;SDS011;1766;53.490;10.174;2023-04-24T04:37:10;4.13;;;3.73;;
3503;SDS011;1766;53.490;10.174;2023-04-24T05:22:38;1.50;;;1.40;;
3503;SDS011;1766;53.490;10.174;2023-04-24T05:24:40;2.43;;;1.20;;
3503;SDS011;1766;53.490;10.174;2023-04-24T05:26:42;2.70;;;1.00;;
3503;SDS011;1766;53.490;10.174;2023-04-24T05:28:43;2.87;;;1.27;;
3503;SDS011;1766;53.490;10.174;2023-04-24T05:30:45;1.83;;;1.40;;
3503;SDS011;1766;53.490;10.174;2023-04-24T05:32:47;1.00;;;1.00;;
3503;SDS011;1766;53.490;10.174;2023-04-24T05:34:49;1.20;;;1.10;;
3503;SDS011;1766;53.490;10.174;2023-04-24T05:36:51;0.90;;;0.90;;
3503;SDS011;1766;53.490;10.174;2023-04-24T05:38:54;1.17;;;1.17;;
3503;SDS011;1766;53.490;10.174;2023-04-24T05:40:56;2.17;;;1.93;;
3503;SDS011;1766;53.490;10.174;2023-04-24T05:42:58;1.20;;;1.20;;
3503;SDS011;1766;53.490;10.174;2023-04-24T05:45:00;4.07;;;1.33;;
3503;SDS011;1766;53.490;10.174;2023-04-24T05:47:02;1.70;;;1.20;;
3503;SDS011;1766;53.490;10.174;2023-04-24T05:49:04;1.00;;;1.00;;
3503;SDS011;1766;53.490;10.174;2023-04-24T05:51:06;0.97;;;0.90;;
3503;SDS011;1766;53.490;10.174;2023-04-24T05:53:08;0.80;;;0.80;;
3503;SDS011;1766;53.490;10.174;2023-04-24T05:55:11;1.23;;;0.90;;
3503;SDS011;1766;53.490;10.174;2023-04-24T05:57:13;1.23;;;0.90;;
3503;SDS011;1766;53.490;10.174;2023-04-24T05:59:15;18.83;;;11.23;;
3503;SDS011;1766;53.490;10.174;2023-04-24T06:01:17;4.10;;;2.33;;
3503;SDS011;1766;53.490;10.174;2023-04-24T06:03:19;0.90;;;0.90;;
3503;SDS011;1766;53.490;10.174;2023-04-24T06:05:21;1.50;;;0.80;;
3503;SDS011;1766;53.490;10.174;2023-04-24T06:07:23;0.93;;;0.93;;
3503;SDS011;1766;53.490;10.174;2023-04-24T06:09:26;1.20;;;0.87;;
3503;SDS011;1766;53.490;10.174;2023-04-24T06:11:29;11.90;;;6.27;;
3503;SDS011;1766;53.490;10.174;2023-04-24T06:13:31;2.00;;;1.80;;
3503;SDS011;1766;53.490;10.174;2023-04-24T06:15:32;8.73;;;6.10;;
3503;SDS011;1766;53.490;10.174;2023-04-24T06:17:34;2.53;;;2.33;;
3503;SDS011;1766;53.490;10.174;2023-04-24T06:19:36;0.90;;;0.90;;
3503;SDS011;1766;53.490;10.174;2023-04-24T06:21:38;2.70;;;1.40;;
3503;SDS011;1766;53.490;10.174;2023-04-24T06:23:40;1.00;;;0.90;;
3503;SDS011;1766;53.490;10.174;2023-04-24T06:25:41;0.83;;;0.83;;
3503;SDS011;1766;53.490;10.174;2023-04-24T06:27:45;2.43;;;1.00;;
3503;SDS011;1766;53.490;10.174;2023-04-24T06:29:47;1.70;;;0.63;;
3503;SDS011;1766;53.490;10.174;2023-04-24T06:31:54;3.70;;;1.60;;
3503;SDS011;1766;53.490;10.174;2023-04-24T06:33:55;1.80;;;1.00;;
3503;SDS011;1766;53.490;10.174;2023-04-24T06:35:57;2.57;;;1.00;;
3503;SDS011;1766;53.490;10.174;2023-04-24T06:37:59;2.03;;;1.00;;
3503;SDS011;1766;53.490;10.174;2023-04-24T06:40:01;1.20;;;1.10;;
3503;SDS011;1766;53.490;10.174;2023-04-24T06:42:03;2.00;;;1.00;;
3503;SDS011;1766;53.490;10.174;2023-04-24T06:44:06;1.00;;;1.00;;
3503;SDS011;1766;53.490;10.174;2023-04-24T06:46:08;0.90;;;0.90;;
3503;SDS011;1766;53.490;10.174;2023-04-24T06:48:10;1.67;;;1.10;;
3503;SDS011;1766;53.490;10.174;2023-04-24T06:50:12;1.00;;;1.00;;
3503;SDS011;1766;53.490;10.174;2023-04-24T06:52:14;1.90;;;1.27;;
3503;SDS011;1766;53.490;10.174;2023-04-24T06:54:16;1.43;;;1.23;;
3503;SDS011;1766;53.490;10.174;2023-04-24T06:56:17;1.20;;;1.10;;
3503;SDS011;1766;53.490;10.174;2023-04-24T06:58:20;1.43;;;1.37;;
3503;SDS011;1766;53.490;10.174;2023-04-24T07:00:23;2.93;;;1.40;;
3503;SDS011;1766;53.490;10.174;2023-04-24T07:02:25;1.30;;;1.20;;
3503;SDS011;1766;53.490;10.174;2023-04-24T07:04:27;1.60;;;1.13;;
3503;SDS011;1766;53.490;10.174;2023-04-24T07:06:28;2.60;;;1.00;;
3503;SDS011;1766;53.490;10.174;2023-04-24T07:08:31;1.17;;;1.17;;
3503;SDS011;1766;53.490;10.174;2023-04-24T07:10:33;1.20;;;1.20;;
3503;SDS011;1766;53.490;10.174;2023-04-24T07:12:35;1.30;;;1.30;;
3503;SDS011;1766;53.490;10.174;2023-04-24T07:14:37;1.13;;;1.03;;
3503;SDS011;1766;53.490;10.174;2023-04-24T07:16:40;1.30;;;1.30;;
3503;SDS011;1766;53.490;10.174;2023-04-24T07:18:43;1.07;;;1.07;;
3503;SDS011;1766;53.490;10.174;2023-04-24T07:20:45;1.33;;;1.23;;
3503;SDS011;1766;53.490;10.174;2023-04-24T07:22:46;2.93;;;1.17;;
3503;SDS011;1766;53.490;10.174;2023-04-24T07:24:49;1.33;;;1.30;;
3503;SDS011;1766;53.490;10.174;2023-04-24T07:26:51;2.77;;;1.47;;
3503;SDS011;1766;53.490;10.174;2023-04-24T07:28:53;2.73;;;1.87;;
3503;SDS011;1766;53.490;10.174;2023-04-24T07:30:56;2.70;;;2.50;;
3503;SDS011;1766;53.490;10.174;2023-04-24T07:33:00;1.80;;;1.70;;
3503;SDS011;1766;53.490;10.174;2023-04-24T07:35:01;1.60;;;1.60;;
3503;SDS011;1766;53.490;10.174;2023-04-24T07:37:03;1.60;;;1.50;;
3503;SDS011;1766;53.490;10.174;2023-04-24T07:39:05;1.63;;;1.53;;
3503;SDS011;1766;53.490;10.174;2023-04-24T07:41:08;1.70;;;1.53;;
3503;SDS011;1766;53.490;10.174;2023-04-24T07:43:10;1.50;;;1.40;;
3503;SDS011;1766;53.490;10.174;2023-04-24T07:45:11;1.30;;;1.30;;
3503;SDS011;1766;53.490;10.174;2023-04-24T07:47:13;1.10;;;1.10;;
3503;SDS011;1766;53.490;10.174;2023-04-24T07:49:17;1.53;;;1.43;;
3503;SDS011;1766;53.490;10.174;2023-04-24T07:51:19;1.33;;;1.33;;
3503;SDS011;1766;53.490;10.174;2023-04-24T07:53:21;1.70;;;1.40;;
3503;SDS011;1766;53.490;10.174;2023-04-24T07:55:22;1.57;;;1.47;;
3503;SDS011;1766;53.490;10.174;2023-04-24T07:57:29;1.43;;;1.20;;
3503;SDS011;1766;53.490;10.174;2023-04-24T07:59:31;1.87;;;1.50;;
3503;SDS011;1766;53.490;10.174;2023-04-24T08:01:32;2.17;;;1.93;;
3503;SDS011;1766;53.490;10.174;2023-04-24T08:03:34;1.70;;;1.60;;
3503;SDS011;1766;53.490;10.174;2023-04-24T08:05:37;8.43;;;6.23;;
3503;SDS011;1766;53.490;10.174;2023-04-24T08:07:39;1.67;;;1.57;;
3503;SDS011;1766;53.490;10.174;2023-04-24T08:09:42;1.70;;;1.60;;
3503;SDS011;1766;53.490;10.174;2023-04-24T08:11:44;2.17;;;2.00;;
3503;SDS011;1766;53.490;10.174;2023-04-24T08:13:46;1.70;;;1.60;;
3503;SDS011;1766;53.490;10.174;2023-04-24T08:15:47;1.87;;;1.77;;
3503;SDS011;1766;53.490;10.174;2023-04-24T08:17:49;1.60;;;1.60;;
3503;SDS011;1766;53.490;10.174;2023-04-24T08:19:51;2.00;;;1.90;;
3503;SDS011;1766;53.490;10.174;2023-04-24T08:22:00;2.20;;;1.87;;
3503;SDS011;1766;53.490;10.174;2023-04-24T08:24:02;2.27;;;2.07;;
3503;SDS011;1766;53.490;10.174;2023-04-24T08:26:07;2.40;;;2.20;;
3503;SDS011;1766;53.490;10.174;2023-04-24T08:28:10;2.40;;;2.30;;
3503;SDS011;1766;53.490;10.174;2023-04-24T08:30:12;3.43;;;2.93;;
3503;SDS011;1766;53.490;10.174;2023-04-24T08:32:14;2.97;;;2.80;;
3503;SDS011;1766;53.490;10.174;2023-04-24T08:34:16;3.30;;;2.97;;
3503;SDS011;1766;53.490;10.174;2023-04-24T08:36:18;2.70;;;2.50;;
3503;SDS011;1766;53.490;10.174;2023-04-24T08:38:21;2.70;;;2.50;;
3503;SDS011;1766;53.490;10.174;2023-04-24T08:40:27;2.93;;;2.73;;
3503;SDS011;1766;53.490;10.174;2023-04-24T08:42:30;4.60;;;2.80;;
3503;SDS011;1766;53.490;10.174;2023-04-24T08:44:33;3.60;;;3.00;;
3503;SDS011;1766;53.490;10.174;2023-04-24T08:46:36;8.50;;;2.97;;
3503;SDS011;1766;53.490;10.174;2023-04-24T08:48:38;4.70;;;2.90;;
3503;SDS011;1766;53.490;10.174;2023-04-24T08:50:41;5.80;;;3.23;;
3503;SDS011;1766;53.490;10.174;2023-04-24T08:52:44;4.27;;;3.07;;
3503;SDS011;1766;53.490;10.174;2023-04-24T08:54:47;7.97;;;3.77;;
3503;SDS011;1766;53.490;10.174;2023-04-24T08:56:49;3.17;;;2.97;;
3503;SDS011;1766;53.490;10.174;2023-04-24T08:58:54;3.50;;;3.30;;
3503;SDS011;1766;53.490;10.174;2023-04-24T09:00:57;3.23;;;2.97;;
3503;SDS011;1766;53.490;10.174;2023-04-24T09:03:00;3.90;;;3.60;;
3503;SDS011;1766;53.490;10.174;2023-04-24T09:05:05;5.67;;;4.37;;
3503;SDS011;1766;53.490;10.174;2023-04-24T09:07:09;4.03;;;3.53;;
3503;SDS011;1766;53.490;10.174;2023-04-24T09:09:13;4.03;;;3.63;;
3503;SDS011;1766;53.490;10.174;2023-04-24T09:11:17;3.70;;;3.40;;
3503;SDS011;1766;53.490;10.174;2023-04-24T09:13:19;4.03;;;3.70;;
3503;SDS011;1766;53.490;10.174;2023-04-24T09:15:21;3.97;;;3.43;;
3503;SDS011;1766;53.490;10.174;2023-04-24T09:17:23;3.03;;;2.80;;
3503;SDS011;1766;53.490;10.174;2023-04-24T09:19:28;5.80;;;2.87;;
3503;SDS011;1766;53.490;10.174;2023-04-24T09:21:31;3.17;;;2.87;;
3503;SDS011;1766;53.490;10.174;2023-04-24T09:23:34;4.07;;;3.67;;
3503;SDS011;1766;53.490;10.174;2023-04-24T09:25:36;3.80;;;3.50;;
3503;SDS011;1766;53.490;10.174;2023-04-24T09:27:43;3.40;;;3.20;;
3503;SDS011;1766;53.490;10.174;2023-04-24T09:29:53;3.07;;;2.87;;
3503;SDS011;1766;53.490;10.174;2023-04-24T09:31:55;4.17;;;2.90;;
3503;SDS011;1766;53.490;10.174;2023-04-24T09:33:58;3.33;;;3.13;;
3503;SDS011;1766;53.490;10.174;2023-04-24T09:36:03;3.60;;;3.30;;
3503;SDS011;1766;53.490;10.174;2023-04-24T09:38:06;4.13;;;3.33;;
3503;SDS011;1766;53.490;10.174;2023-04-24T09:40:08;4.27;;;3.90;;
3503;SDS011;1766;53.490;10.174;2023-04-24T09:42:13;3.50;;;3.23;;
3503;SDS011;1766;53.490;10.174;2023-04-24T09:44:17;4.10;;;3.50;;
3503;SDS011;1766;53.490;10.174;2023-04-24T09:46:20;2.97;;;2.87;;
3503;SDS011;1766;53.490;10.174;2023-04-24T09:48:29;3.47;;;3.17;;
3503;SDS011;1766;53.490;10.174;2023-04-24T09:50:32;3.20;;;2.97;;
3503;SDS011;1766;53.490;10.174;2023-04-24T09:52:34;3.60;;;3.30;;
3503;SDS011;1766;53.490;10.174;2023-04-24T09:54:36;3.60;;;3.30;;
3503;SDS011;1766;53.490;10.174;2023-04-24T09:56:41;3.90;;;3.13;;
3503;SDS011;1766;53.490;10.174;2023-04-24T09:58:45;3.97;;;3.30;;
3503;SDS011;1766;53.490;10.174;2023-04-24T10:00:49;3.70;;;3.40;;
3503;SDS011;1766;53.490;10.174;2023-04-24T10:02:51;5.30;;;3.50;;
3503;SDS011;1766;53.490;10.174;2023-04-24T10:04:57;3.80;;;3.40;;
3503;SDS011;1766;53.490;10.174;2023-04-24T10:07:00;3.73;;;3.40;;
3503;SDS011;1766;53.490;10.174;2023-04-24T10:09:06;3.77;;;3.47;;
3503;SDS011;1766;53.490;10.174;2023-04-24T10:11:10;3.70;;;3.40;;
3503;SDS011;1766;53.490;10.174;2023-04-24T10:13:13;3.77;;;3.33;;
3503;SDS011;1766;53.490;10.174;2023-04-24T10:15:16;4.37;;;3.70;;
3503;SDS011;1766;53.490;10.174;2023-04-24T10:17:22;4.73;;;4.30;;
3503;SDS011;1766;53.490;10.174;2023-04-24T10:19:25;5.70;;;3.83;;
3503;SDS011;1766;53.490;10.174;2023-04-24T10:21:28;6.93;;;4.10;;
3503;SDS011;1766;53.490;10.174;2023-04-24T10:23:30;4.53;;;4.13;;
3503;SDS011;1766;53.490;10.174;2023-04-24T10:25:33;4.77;;;4.33;;
3503;SDS011;1766;53.490;10.174;2023-04-24T10:27:37;4.70;;;4.13;;
3503;SDS011;1766;53.490;10.174;2023-04-24T10:29:40;5.30;;;4.13;;
3503;SDS011;1766;53.490;10.174;2023-04-24T10:31:44;4.60;;;4.20;;
3503;SDS011;1766;53.490;10.174;2023-04-24T10:33:48;6.10;;;5.13;;
3503;SDS011;1766;53.490;10.174;2023-04-24T10:35:52;5.03;;;4.63;;
3503;SDS011;1766;53.490;10.174;2023-04-24T10:37:56;5.60;;;5.10;;
3503;SDS011;1766;53.490;10.174;2023-04-24T10:40:00;6.40;;;5.27;;
3503;SDS011;1766;53.490;10.174;2023-04-24T10:42:08;7.10;;;5.30;;
3503;SDS011;1766;53.490;10.174;2023-04-24T10:44:16;8.23;;;5.40;;
3503;SDS011;1766;53.490;10.174;2023-04-24T10:46:19;6.17;;;5.27;;
3503;SDS011;1766;53.490;10.174;2023-04-24T10:48:26;5.93;;;5.27;;
3503;SDS011;1766;53.490;10.174;2023-04-24T10:50:43;7.67;;;5.57;;
3503;SDS011;1766;53.490;10.174;2023-04-24T10:52:46;8.90;;;5.47;;
3503;SDS011;1766;53.490;10.174;2023-04-24T10:54:51;6.50;;;5.37;;
3503;SDS011;1766;53.490;10.174;2023-04-24T10:56:53;6.70;;;5.97;;
3503;SDS011;1766;53.490;10.174;2023-04-24T10:59:34;8.80;;;6.70;;
3503;SDS011;1766;53.490;10.174;2023-04-24T11:01:37;7.67;;;6.80;;
3503;SDS011;1766;53.490;10.174;2023-04-24T11:03:39;7.60;;;6.63;;
3503;SDS011;1766;53.490;10.174;2023-04-24T11:05:58;10.33;;;6.47;;
3503;SDS011;1766;53.490;10.174;2023-04-24T11:08:09;7.70;;;6.40;;
3503;SDS011;1766;53.490;10.174;2023-04-24T11:10:21;7.23;;;5.87;;
3503;SDS011;1766;53.490;10.174;2023-04-24T11:12:27;6.77;;;5.97;;
3503;SDS011;1766;53.490;10.174;2023-04-24T11:14:29;5.90;;;5.27;;
3503;SDS011;1766;53.490;10.174;2023-04-24T11:16:31;7.70;;;6.53;;
3503;SDS011;1766;53.490;10.174;2023-04-24T11:18:37;8.40;;;5.43;;
3503;SDS011;1766;53.490;10.174;2023-04-24T11:20:41;6.30;;;5.40;;
3503;SDS011;1766;53.490;10.174;2023-04-24T11:22:45;7.57;;;5.10;;
3503;SDS011;1766;53.490;10.174;2023-04-24T11:24:49;7.37;;;5.13;;
3503;SDS011;1766;53.490;10.174;2023-04-24T11:26:55;6.10;;;5.30;;
3503;SDS011;1766;53.490;10.174;2023-04-24T11:29:06;6.03;;;5.43;;
3503;SDS011;1766;53.490;10.174;2023-04-24T11:33:41;12.67;;;10.40;;
3503;SDS011;1766;53.490;10.174;2023-04-24T11:35:43;16.27;;;11.30;;
3503;SDS011;1766;53.490;10.174;2023-04-24T11:37:47;5.97;;;4.40;;
3503;SDS011;1766;53.490;10.174;2023-04-24T11:39:51;5.10;;;4.60;;
3503;SDS011;1766;53.490;10.174;2023-04-24T11:41:54;5.53;;;4.90;;
3503;SDS011;1766;53.490;10.174;2023-04-24T11:44:05;5.33;;;4.83;;
3503;SDS011;1766;53.490;10.174;2023-04-24T11:46:09;5.97;;;5.37;;
3503;SDS011;1766;53.490;10.174;2023-04-24T11:48:11;7.27;;;4.43;;
3503;SDS011;1766;53.490;10.174;2023-04-24T11:50:13;5.13;;;4.40;;
3503;SDS011;1766;53.490;10.174;2023-04-24T11:52:17;4.90;;;4.50;;
3503;SDS011;1766;53.490;10.174;2023-04-24T11:54:21;4.60;;;4.20;;
3503;SDS011;1766;53.490;10.174;2023-04-24T11:56:23;5.40;;;4.90;;
3503;SDS011;1766;53.490;10.174;2023-04-24T11:58:28;4.93;;;4.53;;
3503;SDS011;1766;53.490;10.174;2023-04-24T12:00:35;4.63;;;4.23;;
3503;SDS011;1766;53.490;10.174;2023-04-24T12:02:38;5.53;;;4.20;;
3503;SDS011;1766;53.490;10.174;2023-04-24T12:04:40;4.00;;;3.57;;
3503;SDS011;1766;53.490;10.174;2023-04-24T12:09:00;4.17;;;3.80;;
3503;SDS011;1766;53.490;10.174;2023-04-24T12:11:04;3.70;;;3.40;;
3503;SDS011;1766;53.490;10.174;2023-04-24T12:13:09;4.32;;;3.38;;
3503;SDS011;1766;53.490;10.174;2023-04-24T12:15:11;3.60;;;3.30;;
3503;SDS011;1766;53.490;10.174;2023-04-24T12:17:13;3.53;;;3.20;;
3503;SDS011;1766;53.490;10.174;2023-04-24T12:19:17;3.73;;;3.50;;
3503;SDS011;1766;53.490;10.174;2023-04-24T12:21:21;4.90;;;3.40;;
3503;SDS011;1766;53.490;10.174;2023-04-24T12:23:33;3.90;;;3.60;;
3503;SDS011;1766;53.490;10.174;2023-04-24T12:25:36;3.40;;;3.10;;
3503;SDS011;1766;53.490;10.174;2023-04-24T12:27:42;3.33;;;3.10;;
3503;SDS011;1766;53.490;10.174;2023-04-24T12:29:50;3.33;;;2.93;;
3503;SDS011;1766;53.490;10.174;2023-04-24T12:31:54;3.10;;;2.90;;
3503;SDS011;1766;53.490;10.174;2023-04-24T12:33:56;3.40;;;3.10;;
3503;SDS011;1766;53.490;10.174;2023-04-24T12:35:57;3.43;;;3.23;;
3503;SDS011;1766;53.490;10.174;2023-04-24T12:38:05;23.60;;;15.10;;
3503;SDS011;1766;53.490;10.174;2023-04-24T12:40:08;4.20;;;3.83;;
3503;SDS011;1766;53.490;10.174;2023-04-24T12:42:12;3.27;;;2.97;;
3503;SDS011;1766;53.490;10.174;2023-04-24T12:44:15;3.43;;;3.13;;
3503;SDS011;1766;53.490;10.174;2023-04-24T12:46:18;3.90;;;3.50;;
3503;SDS011;1766;53.490;10.174;2023-04-24T12:48:20;3.37;;;3.07;;
3503;SDS011;1766;53.490;10.174;2023-04-24T12:50:22;7.23;;;3.67;;
3503;SDS011;1766;53.490;10.174;2023-04-24T12:52:25;5.47;;;3.60;;
3503;SDS011;1766;53.490;10.174;2023-04-24T12:54:31;3.27;;;3.07;;
3503;SDS011;1766;53.490;10.174;2023-04-24T12:56:39;3.30;;;2.17;;
3503;SDS011;1766;53.490;10.174;2023-04-24T12:58:41;3.03;;;2.70;;
3503;SDS011;1766;53.490;10.174;2023-04-24T13:00:45;2.87;;;2.57;;
3503;SDS011;1766;53.490;10.174;2023-04-24T13:02:47;9.57;;;6.50;;
3503;SDS011;1766;53.490;10.174;2023-04-24T13:04:49;4.93;;;2.70;;
3503;SDS011;1766;53.490;10.174;2023-04-24T13:06:51;2.37;;;2.27;;
3503;SDS011;1766;53.490;10.174;2023-04-24T13:08:53;2.63;;;2.43;;
3503;SDS011;1766;53.490;10.174;2023-04-24T13:10:57;2.77;;;2.57;;
3503;SDS011;1766;53.490;10.174;2023-04-24T13:12:59;2.20;;;2.10;;
3503;SDS011;1766;53.490;10.174;2023-04-24T13:15:01;2.70;;;2.50;;
3503;SDS011;1766;53.490;10.174;2023-04-24T13:17:05;4.17;;;2.33;;
3503;SDS011;1766;53.490;10.174;2023-04-24T13:19:09;2.80;;;2.60;;
3503;SDS011;1766;53.490;10.174;2023-04-24T13:21:11;3.37;;;2.60;;